This is the latest recevied weather packets stored in our database for station/object VA3JLF-1. If no packets are shown the sender has not sent any weather packets the latest 10 day(s).
| Time | Temp. | Humidity | Pressure | Rain* | Wind** | Luminosity | Snow |
|---|---|---|---|---|---|---|---|
| 1777968958 | 12.22° C | 95% | 997.1 hPa | 1.02 mm | - | - | - |
| 1777968357 | 13.33° C | 90% | 997.1 hPa | 0.51 mm | - | - | - |
| 1777967758 | 14.44° C | 87% | 997.2 hPa | 0.25 mm | - | - | - |
| 1777967157 | 14.44° C | 85% | 997.3 hPa | 0.25 mm | - | - | - |
| 1777966558 | 15° C | 81% | 997.4 hPa | 0 mm | - | - | - |
| 1777965958 | 15° C | 81% | 997.6 hPa | 0 mm | - | - | - |
| 1777965357 | 15° C | 81% | 997.5 hPa | 0 mm | - | - | - |
| 1777964757 | 15° C | 81% | 997.5 hPa | 0 mm | - | - | - |
| 1777964158 | 15° C | 80% | 997.4 hPa | 0 mm | - | - | - |
| 1777963557 | 15° C | 80% | 997.6 hPa | 0 mm | - | - | - |
| 1777962958 | 15° C | 79% | 997.5 hPa | 0.51 mm | - | - | - |
| 1777962358 | 15° C | 79% | 997.3 hPa | 1.27 mm | - | - | - |
| 1777961757 | 14.44° C | 80% | 997.3 hPa | 2.54 mm | - | - | - |
| 1777961157 | 13.33° C | 86% | 997 hPa | 2.79 mm | - | - | - |
| 1777960558 | 12.22° C | 91% | 997.2 hPa | 2.79 mm | - | - | - |
| 1777959958 | 11.67° C | 97% | 997.4 hPa | 2.79 mm | - | - | - |
| 1777959358 | 11.67° C | 96% | 997.5 hPa | 2.54 mm | - | - | - |
| 1777958757 | 12.78° C | 93% | 997.8 hPa | 1.52 mm | - | - | - |
| 1777958159 | 13.89° C | 80% | 998.1 hPa | 0.51 mm | - | - | - |
| 1777957558 | 14.44° C | 65% | 997.4 hPa | 0 mm | - | - | - |
| 1777956957 | 14.44° C | 62% | 997.8 hPa | 0 mm | - | - | - |
| 1777956357 | 15.56° C | 60% | 998 hPa | 0 mm | - | - | - |
| 1777955757 | 15° C | 62% | 998 hPa | 0 mm | - | - | - |
| 1777955157 | 15° C | 61% | 997.8 hPa | 0 mm | - | - | - |
| 1777954557 | 14.44° C | 61% | 997.8 hPa | 0 mm | - | - | - |
* Rain latest hour (hover to see other rain measurements)
** Current wind speed in m/s (hover to see current wind gust speed)